createdAt,value
2019-03-18T00:02:15.442Z,69.15
2019-03-18T00:04:46.996Z,69.37
2019-03-18T00:07:18.581Z,69.61
2019-03-18T00:09:50.391Z,69.62
2019-03-18T00:12:22.001Z,69.72
2019-03-18T00:15:01.116Z,69.78
2019-03-18T00:17:27.085Z,70.12
2019-03-18T00:19:58.699Z,70.09
2019-03-18T00:22:30.232Z,70.11
2019-03-18T00:25:01.782Z,70.19
2019-03-18T00:27:35.522Z,70.04
2019-03-18T00:30:09.303Z,69.95
2019-03-18T00:32:41.116Z,70.29
2019-03-18T00:35:13.151Z,70.35
2019-03-18T00:37:44.987Z,70.11
2019-03-18T00:40:16.933Z,70.24
2019-03-18T00:42:48.481Z,70.49
2019-03-18T00:45:20.375Z,70.13
2019-03-18T00:47:52.207Z,70.56
2019-03-18T00:50:23.772Z,70.82
2019-03-18T00:52:55.328Z,70.48
2019-03-18T00:55:26.968Z,70.01
2019-03-18T00:57:59.247Z,70.39
2019-03-18T01:00:30.803Z,70.00
2019-03-18T01:03:02.357Z,70.13
2019-03-18T01:05:33.918Z,70.13
2019-03-18T01:08:06.411Z,69.56
2019-03-18T01:10:37.982Z,69.53
2019-03-18T01:13:09.510Z,69.62
2019-03-18T01:15:41.089Z,69.31
2019-03-18T01:18:12.639Z,69.49
2019-03-18T01:20:45.254Z,69.88
2019-03-18T01:23:16.795Z,69.79
2019-03-18T01:25:48.348Z,69.64
2019-03-18T01:28:19.937Z,69.83
2019-03-18T01:30:51.501Z,69.81
2019-03-18T01:33:23.029Z,69.68
2019-03-18T01:35:54.573Z,69.79
2019-03-18T01:38:26.386Z,69.99
2019-03-18T01:40:57.955Z,70.32
2019-03-18T01:43:29.489Z,70.64
2019-03-18T01:46:01.055Z,71.04
2019-03-18T01:48:32.597Z,71.23
2019-03-18T01:51:04.180Z,71.48
2019-03-18T01:53:35.717Z,71.32
2019-03-18T01:56:08.544Z,71.32
2019-03-18T01:58:40.088Z,71.37
2019-03-18T02:01:11.970Z,71.60
2019-03-18T02:03:43.543Z,71.59
2019-03-18T02:06:15.134Z,71.70
2019-03-18T02:08:46.743Z,71.57
2019-03-18T02:11:18.292Z,71.54
2019-03-18T02:13:49.906Z,71.54
2019-03-18T02:16:21.443Z,71.64
2019-03-18T02:18:53.025Z,71.55
2019-03-18T02:21:24.579Z,71.92
2019-03-18T02:23:56.414Z,71.87
2019-03-18T02:26:27.943Z,71.87
2019-03-18T02:28:59.501Z,72.03
2019-03-18T02:31:31.049Z,72.12
2019-03-18T02:34:02.618Z,72.35
2019-03-18T02:36:35.651Z,72.36
2019-03-18T02:39:09.294Z,72.16
2019-03-18T02:41:42.195Z,72.10
2019-03-18T02:44:13.728Z,72.25
2019-03-18T02:46:45.266Z,72.61
2019-03-18T02:49:16.807Z,72.77
2019-03-18T02:51:48.380Z,72.21
2019-03-18T02:54:20.203Z,72.37
2019-03-18T02:56:52.044Z,72.56
2019-03-18T02:59:23.606Z,72.57
2019-03-18T03:01:55.137Z,72.11
2019-03-18T03:04:26.694Z,72.57
2019-03-18T03:06:58.224Z,72.40
2019-03-18T03:09:30.005Z,72.17
2019-03-18T03:12:01.551Z,72.46
2019-03-18T03:14:33.100Z,72.76
2019-03-18T03:17:04.949Z,72.91
2019-03-18T03:19:36.778Z,72.98
2019-03-18T03:22:08.348Z,73.03
2019-03-18T03:24:39.912Z,73.10
2019-03-18T03:27:11.703Z,73.25
2019-03-18T03:29:43.521Z,72.95
2019-03-18T03:32:15.434Z,73.50
2019-03-18T03:34:46.931Z,73.90
2019-03-18T03:37:18.526Z,73.78
2019-03-18T03:39:50.077Z,73.02
2019-03-18T03:42:21.817Z,73.07
2019-03-18T03:44:53.611Z,72.93
2019-03-18T03:47:25.446Z,73.19
2019-03-18T03:49:56.984Z,73.33
2019-03-18T03:52:30.134Z,73.65
2019-03-18T03:55:01.941Z,73.24
2019-03-18T03:57:33.507Z,72.99
2019-03-18T04:00:06.212Z,72.99
2019-03-18T04:02:37.773Z,73.32
2019-03-18T04:05:09.457Z,73.25
2019-03-18T04:07:41.320Z,73.40
2019-03-18T04:10:13.987Z,73.18
2019-03-18T04:12:45.544Z,72.98
2019-03-18T04:15:17.098Z,72.90
2019-03-18T04:17:48.932Z,72.96
2019-03-18T04:20:20.470Z,72.96
2019-03-18T04:22:52.033Z,73.03
2019-03-18T04:25:23.582Z,73.11
2019-03-18T04:27:55.432Z,73.15
2019-03-18T04:30:26.955Z,73.50
2019-03-18T04:32:58.780Z,73.31
2019-03-18T04:35:31.271Z,73.59
2019-03-18T04:38:03.107Z,73.30
2019-03-18T04:40:34.637Z,73.57
2019-03-18T04:43:06.192Z,73.46
2019-03-18T04:45:37.716Z,73.37
2019-03-18T04:48:09.281Z,72.95
2019-03-18T04:50:40.836Z,72.32
2019-03-18T04:53:12.388Z,72.23
2019-03-18T04:55:46.994Z,72.77
2019-03-18T04:58:17.208Z,72.17
2019-03-18T05:00:48.743Z,72.45
2019-03-18T05:03:20.286Z,72.15
2019-03-18T05:05:51.802Z,72.45
2019-03-18T05:08:23.363Z,72.16
2019-03-18T05:10:54.912Z,72.29
2019-03-18T05:13:26.722Z,72.04
2019-03-18T05:15:58.283Z,72.52
2019-03-18T05:18:29.858Z,73.63
2019-03-18T05:21:01.400Z,73.99
2019-03-18T05:23:32.956Z,74.39
2019-03-18T05:26:04.488Z,74.72
2019-03-18T05:28:36.064Z,73.84
2019-03-18T05:31:07.603Z,73.54
2019-03-18T05:33:39.192Z,73.30
2019-03-18T05:36:10.762Z,73.26
2019-03-18T05:38:42.353Z,73.41
2019-03-18T05:41:13.918Z,73.40
2019-03-18T05:43:45.468Z,73.32
2019-03-18T05:46:17.082Z,73.80
2019-03-18T05:48:50.419Z,73.99
2019-03-18T05:51:21.994Z,74.36
2019-03-18T05:53:54.631Z,74.38
2019-03-18T05:56:26.185Z,73.93
2019-03-18T05:58:57.727Z,73.93
2019-03-18T06:01:29.376Z,73.86
2019-03-18T06:04:00.920Z,73.45
2019-03-18T06:06:32.484Z,72.94
2019-03-18T06:09:05.114Z,73.18
2019-03-18T06:11:36.733Z,73.54
2019-03-18T06:14:08.310Z,73.48
2019-03-18T06:16:39.957Z,73.33
2019-03-18T06:19:11.534Z,73.40
2019-03-18T06:21:44.203Z,73.17
2019-03-18T06:24:15.790Z,73.11
2019-03-18T06:26:47.346Z,73.17
2019-03-18T06:29:19.655Z,73.25
2019-03-18T06:31:51.238Z,72.31
2019-03-18T06:34:22.784Z,72.14
2019-03-18T06:36:54.356Z,71.98
2019-03-18T06:39:25.926Z,72.23
2019-03-18T06:41:57.574Z,72.25
2019-03-18T06:44:29.123Z,72.15
2019-03-18T06:47:00.680Z,72.09
2019-03-18T06:49:32.235Z,72.30
2019-03-18T06:52:03.826Z,72.37
2019-03-18T06:54:37.165Z,72.20
2019-03-18T06:57:08.722Z,72.02
2019-03-18T06:59:40.341Z,71.31
2019-03-18T07:02:11.915Z,71.53
2019-03-18T07:04:43.572Z,70.47
2019-03-18T07:07:15.136Z,70.33
2019-03-18T07:09:46.712Z,70.45
2019-03-18T07:12:18.272Z,69.25
2019-03-18T07:14:49.885Z,69.62
2019-03-18T07:17:21.557Z,68.57
2019-03-18T07:19:53.125Z,69.17
2019-03-18T07:22:24.765Z,69.15
2019-03-18T07:24:56.340Z,68.51
2019-03-18T07:27:27.883Z,67.96
2019-03-18T07:29:59.437Z,68.13
2019-03-18T07:32:30.981Z,68.26
2019-03-18T07:35:02.548Z,67.99
2019-03-18T07:37:34.083Z,68.03
2019-03-18T07:40:06.548Z,68.04
2019-03-18T07:42:38.100Z,67.96
2019-03-18T07:45:11.109Z,68.40
2019-03-18T07:47:42.631Z,68.19
2019-03-18T07:50:14.237Z,67.78
2019-03-18T07:52:45.798Z,67.04
2019-03-18T07:55:17.418Z,66.99
2019-03-18T07:57:48.946Z,66.03
2019-03-18T08:00:20.499Z,65.78
2019-03-18T08:02:52.075Z,65.73
2019-03-18T08:05:23.655Z,67.07
2019-03-18T08:07:55.294Z,65.40
2019-03-18T08:10:26.862Z,65.32
2019-03-18T08:12:58.771Z,64.52
2019-03-18T08:15:30.300Z,65.31
2019-03-18T08:18:01.856Z,65.56
2019-03-18T08:20:33.434Z,65.98
2019-03-18T08:23:04.979Z,66.75
2019-03-18T08:25:36.556Z,67.01
2019-03-18T08:28:08.112Z,67.90
2019-03-18T08:30:39.654Z,67.33
2019-03-18T08:33:12.964Z,65.75
2019-03-18T08:35:44.564Z,66.61
2019-03-18T08:38:16.130Z,66.28
2019-03-18T08:40:47.691Z,67.20
2019-03-18T08:43:19.282Z,67.33
2019-03-18T08:45:50.816Z,67.40
2019-03-18T08:48:22.425Z,67.68
2019-03-18T08:50:53.968Z,66.78
2019-03-18T08:53:27.008Z,67.37
2019-03-18T08:55:58.630Z,67.21
2019-03-18T08:58:30.229Z,67.01
2019-03-18T09:01:01.782Z,68.14
2019-03-18T09:03:33.376Z,67.43
2019-03-18T09:06:04.944Z,66.38
2019-03-18T09:08:36.530Z,65.00
2019-03-18T09:11:08.179Z,64.48
2019-03-18T09:13:39.775Z,62.86
2019-03-18T09:16:11.576Z,62.43
2019-03-18T09:18:43.134Z,62.61
2019-03-18T09:21:14.882Z,62.57
2019-03-18T09:23:46.436Z,62.48
2019-03-18T09:26:18.213Z,62.32
2019-03-18T09:28:49.764Z,61.52
2019-03-18T09:31:21.464Z,61.40
2019-03-18T09:33:53.106Z,61.47
2019-03-18T09:36:24.689Z,60.79
2019-03-18T09:38:56.272Z,59.54
2019-03-18T09:41:27.862Z,59.81
2019-03-18T09:43:59.422Z,61.02
2019-03-18T09:46:31.038Z,61.78
2019-03-18T09:49:20.724Z,60.17
2019-03-18T09:51:41.791Z,60.18
2019-03-18T09:54:13.471Z,60.93
2019-03-18T09:56:45.064Z,58.61
2019-03-18T09:59:16.648Z,58.60
2019-03-18T10:01:48.227Z,58.25
2019-03-18T10:04:19.831Z,59.21
2019-03-18T10:06:51.413Z,58.91
2019-03-18T10:09:22.960Z,58.11
2019-03-18T10:11:54.527Z,57.08
2019-03-18T10:14:26.138Z,56.23
2019-03-18T10:17:09.108Z,55.83
2019-03-18T10:19:33.635Z,57.16
2019-03-18T10:22:04.299Z,56.79
2019-03-18T10:24:35.863Z,57.68
2019-03-18T10:27:07.472Z,57.69
2019-03-18T10:29:39.050Z,57.90
2019-03-18T10:32:10.726Z,55.44
2019-03-18T10:34:42.306Z,55.54
2019-03-18T10:37:13.906Z,55.75
2019-03-18T10:39:45.512Z,56.26
2019-03-18T10:42:17.120Z,56.52
2019-03-18T10:44:48.682Z,57.64
2019-03-18T10:47:20.260Z,56.80
2019-03-18T10:49:51.827Z,57.67
2019-03-18T10:52:24.478Z,55.54
2019-03-18T10:54:57.087Z,55.48
2019-03-18T10:57:28.679Z,55.31
2019-03-18T11:00:01.446Z,55.15
2019-03-18T11:02:33.803Z,54.55
2019-03-18T11:05:08.192Z,54.55
2019-03-18T11:07:39.282Z,53.58
2019-03-18T11:10:12.575Z,53.00
2019-03-18T11:12:44.396Z,53.77
2019-03-18T11:15:15.972Z,54.57
2019-03-18T11:17:47.529Z,53.83
2019-03-18T11:20:19.112Z,53.92
2019-03-18T11:22:50.677Z,52.79
2019-03-18T11:25:22.269Z,54.80
2019-03-18T11:27:53.903Z,53.78
2019-03-18T11:30:25.497Z,52.46
2019-03-18T11:32:57.055Z,52.83
2019-03-18T11:35:28.680Z,51.56
2019-03-18T11:38:02.087Z,51.81
2019-03-18T11:40:33.678Z,52.65
2019-03-18T11:43:05.269Z,52.05
2019-03-18T11:45:36.831Z,53.36
2019-03-18T11:48:08.467Z,51.38
2019-03-18T11:50:41.415Z,49.95
2019-03-18T11:53:14.655Z,52.36
2019-03-18T11:55:46.498Z,51.20
2019-03-18T11:58:18.105Z,51.96
2019-03-18T12:00:49.683Z,52.34
2019-03-18T12:03:21.293Z,51.58
2019-03-18T12:05:52.934Z,50.48
2019-03-18T12:08:24.520Z,51.63
2019-03-18T12:10:56.087Z,50.75
2019-03-18T12:13:27.701Z,50.03
2019-03-18T12:15:59.295Z,50.35
2019-03-18T12:18:30.913Z,52.43
2019-03-18T12:21:02.477Z,51.41
2019-03-18T12:23:34.077Z,52.11
2019-03-18T12:26:05.664Z,53.51
2019-03-18T12:28:37.203Z,52.84
2019-03-18T12:31:08.777Z,53.06
2019-03-18T12:33:40.362Z,53.29
2019-03-18T12:36:11.990Z,53.27
2019-03-18T12:38:43.555Z,50.56
2019-03-18T12:41:15.310Z,50.55
2019-03-18T12:43:46.897Z,51.31
2019-03-18T12:46:18.511Z,51.92
2019-03-18T12:48:50.096Z,52.70
2019-03-18T12:51:21.947Z,51.19
2019-03-18T12:53:54.580Z,52.78
2019-03-18T12:56:27.232Z,50.96
2019-03-18T12:58:58.819Z,50.49
2019-03-18T13:01:30.547Z,50.61
2019-03-18T13:04:02.133Z,49.48
2019-03-18T13:06:33.787Z,50.25
2019-03-18T13:09:08.376Z,50.70
2019-03-18T13:11:40.155Z,50.82
2019-03-18T13:14:12.807Z,49.56
2019-03-18T13:16:44.404Z,49.17
2019-03-18T13:19:15.988Z,50.00
2019-03-18T13:21:47.704Z,50.46
2019-03-18T13:24:19.306Z,51.14
2019-03-18T13:26:50.874Z,52.17
2019-03-18T13:29:22.476Z,52.27
2019-03-18T13:31:54.104Z,51.58
2019-03-18T13:34:25.650Z,50.91
2019-03-18T13:36:57.242Z,50.41
2019-03-18T13:39:28.800Z,49.48
2019-03-18T13:42:00.479Z,51.87
2019-03-18T13:44:33.273Z,50.63
2019-03-18T13:47:04.947Z,50.49
2019-03-18T13:49:36.503Z,50.79
2019-03-18T13:52:08.089Z,50.66
2019-03-18T13:54:39.722Z,51.88
2019-03-18T13:57:11.280Z,51.31
2019-03-18T13:59:42.883Z,50.43
2019-03-18T14:02:14.493Z,50.13
2019-03-18T14:04:46.102Z,51.10
2019-03-18T14:07:17.699Z,50.91
2019-03-18T14:09:49.541Z,50.93
2019-03-18T14:12:21.123Z,51.30
2019-03-18T14:14:52.765Z,51.05
2019-03-18T14:17:24.381Z,51.66
2019-03-18T14:19:55.958Z,50.00
2019-03-18T14:22:27.605Z,51.46
2019-03-18T14:24:59.192Z,52.43
2019-03-18T14:27:30.780Z,52.70
2019-03-18T14:30:02.358Z,51.94
2019-03-18T14:32:35.037Z,52.60
2019-03-18T14:35:07.232Z,53.56
2019-03-18T14:37:38.820Z,53.50
2019-03-18T14:40:12.460Z,53.27
2019-03-18T14:42:44.051Z,53.72
2019-03-18T14:45:17.880Z,54.12
2019-03-18T14:47:49.456Z,54.96
2019-03-18T14:50:21.047Z,55.16
2019-03-18T14:52:52.687Z,56.00
2019-03-18T14:55:24.268Z,56.58
2019-03-18T14:57:56.010Z,56.53
2019-03-18T15:00:27.736Z,57.24
2019-03-18T15:02:59.336Z,57.57
2019-03-18T15:05:31.107Z,57.80
2019-03-18T15:08:02.706Z,57.94
2019-03-18T15:10:34.262Z,57.19
2019-03-18T15:13:05.878Z,56.85
2019-03-18T15:15:37.464Z,55.77
2019-03-18T15:18:09.008Z,56.92
2019-03-18T15:20:40.695Z,56.47
2019-03-18T15:23:12.279Z,56.43
2019-03-18T15:25:43.853Z,55.93
2019-03-18T15:28:15.440Z,56.33
2019-03-18T15:30:47.028Z,55.35
2019-03-18T15:33:18.634Z,54.87
2019-03-18T15:35:50.209Z,56.51
2019-03-18T15:38:22.079Z,57.25
2019-03-18T15:40:54.772Z,57.25
2019-03-18T15:43:27.443Z,58.10
2019-03-18T15:45:59.036Z,60.70
2019-03-18T15:48:30.599Z,60.32
2019-03-18T15:51:02.346Z,59.55
2019-03-18T15:53:33.908Z,60.17
2019-03-18T15:56:05.480Z,60.28
2019-03-18T15:58:37.077Z,60.53
2019-03-18T16:01:08.650Z,61.02
2019-03-18T16:03:40.404Z,61.55
2019-03-18T16:06:11.996Z,61.94
2019-03-18T16:08:43.644Z,61.85
2019-03-18T16:11:15.491Z,61.61
2019-03-18T16:13:47.069Z,60.62
2019-03-18T16:16:18.695Z,60.25
2019-03-18T16:18:50.309Z,59.83
2019-03-18T16:21:21.918Z,58.84
2019-03-18T16:23:53.526Z,58.03
2019-03-18T16:26:25.125Z,57.61
2019-03-18T16:28:56.734Z,57.57
2019-03-18T16:31:28.347Z,57.19
2019-03-18T16:33:59.969Z,57.20
2019-03-18T16:36:33.109Z,57.33
2019-03-18T16:39:06.157Z,57.48
2019-03-18T16:41:37.750Z,57.61
2019-03-18T16:44:09.351Z,57.74
2019-03-18T16:46:40.949Z,57.89
2019-03-18T16:49:12.564Z,58.07
2019-03-18T16:51:45.147Z,58.12
2019-03-18T16:54:16.774Z,58.32
2019-03-18T16:56:48.315Z,58.45
2019-03-18T16:59:19.866Z,58.75
2019-03-18T17:01:51.478Z,58.59
2019-03-18T17:04:23.042Z,58.48
2019-03-18T17:06:54.652Z,58.43
2019-03-18T17:09:26.225Z,59.08
2019-03-18T17:11:58.907Z,60.09
2019-03-18T17:14:31.582Z,61.54
2019-03-18T17:17:03.177Z,61.66
2019-03-18T17:19:35.998Z,62.64
2019-03-18T17:22:07.652Z,63.12
2019-03-18T17:24:40.312Z,64.06
2019-03-18T17:27:14.699Z,68.32
2019-03-18T17:29:47.793Z,70.31
2019-03-18T17:32:19.360Z,71.29
2019-03-18T17:34:52.069Z,72.93
2019-03-18T17:37:23.693Z,73.05
2019-03-18T17:39:55.290Z,73.68
2019-03-18T17:42:26.854Z,72.95
2019-03-18T17:44:58.410Z,73.61
2019-03-18T17:47:30.968Z,73.93
2019-03-18T17:50:02.599Z,74.89
2019-03-18T17:52:34.223Z,75.38
2019-03-18T17:55:06.326Z,75.09
2019-03-18T17:57:37.923Z,75.66
2019-03-18T18:00:15.053Z,76.13
2019-03-18T18:02:46.657Z,76.63
2019-03-18T18:05:18.494Z,76.31
2019-03-18T18:07:50.108Z,76.06
2019-03-18T18:10:21.691Z,75.25
2019-03-18T18:12:53.302Z,74.78
2019-03-18T18:15:24.837Z,74.94
2019-03-18T18:17:56.461Z,75.13
2019-03-18T18:20:28.048Z,75.67
2019-03-18T18:22:59.749Z,76.14
2019-03-18T18:25:31.689Z,76.78
2019-03-18T18:28:03.620Z,77.00
2019-03-18T18:30:35.469Z,77.15
2019-03-18T18:33:08.134Z,77.57
2019-03-18T18:35:39.918Z,77.87
2019-03-18T18:38:11.937Z,78.16
2019-03-18T18:40:43.816Z,78.32
2019-03-18T18:43:15.719Z,78.29
2019-03-18T18:45:47.349Z,78.14
2019-03-18T18:48:18.998Z,78.13
2019-03-18T18:50:50.976Z,78.23
2019-03-18T18:53:26.653Z,78.03
2019-03-18T18:55:55.983Z,77.66
2019-03-18T18:58:27.600Z,77.18
2019-03-18T19:00:59.211Z,77.31
2019-03-18T19:03:30.858Z,77.42
2019-03-18T19:06:02.486Z,77.19
2019-03-18T19:08:34.081Z,77.15
2019-03-18T19:11:05.774Z,76.90
2019-03-18T19:13:37.406Z,76.66
2019-03-18T19:16:09.014Z,76.54
2019-03-18T19:18:42.206Z,77.05
2019-03-18T19:21:13.850Z,77.22
2019-03-18T19:23:45.478Z,77.11
2019-03-18T19:26:17.438Z,76.84
2019-03-18T19:28:49.059Z,76.80
2019-03-18T19:31:20.730Z,76.87
2019-03-18T19:33:52.431Z,77.00
2019-03-18T19:36:24.375Z,77.18
2019-03-18T19:38:56.087Z,77.26
2019-03-18T19:41:27.691Z,77.76
2019-03-18T19:43:59.355Z,77.47
2019-03-18T19:46:31.049Z,77.40
2019-03-18T19:49:03.062Z,77.83
2019-03-18T19:51:34.657Z,77.56
2019-03-18T19:54:06.343Z,77.43
2019-03-18T19:56:37.945Z,77.60
2019-03-18T19:59:09.544Z,77.97
2019-03-18T20:01:41.123Z,77.91
2019-03-18T20:04:13.070Z,77.78
2019-03-18T20:06:44.676Z,78.16
2019-03-18T20:09:16.369Z,78.29
2019-03-18T20:11:48.011Z,78.20
2019-03-18T20:14:19.875Z,77.96
2019-03-18T20:16:51.533Z,78.18
2019-03-18T20:19:25.588Z,78.65
2019-03-18T20:21:56.589Z,78.01
2019-03-18T20:24:28.270Z,78.11
2019-03-18T20:26:59.861Z,78.36
2019-03-18T20:29:31.519Z,78.37
2019-03-18T20:32:03.129Z,78.13
2019-03-18T20:34:34.709Z,78.19
2019-03-18T20:37:06.576Z,78.25
2019-03-18T20:39:39.119Z,78.25
2019-03-18T20:42:10.805Z,78.04
2019-03-18T20:44:43.777Z,78.16
2019-03-18T20:47:15.410Z,77.99
2019-03-18T20:49:47.303Z,77.94
2019-03-18T20:52:18.953Z,78.17
2019-03-18T20:54:50.812Z,78.01
2019-03-18T20:57:22.729Z,78.26
2019-03-18T20:59:54.454Z,78.40
2019-03-18T21:02:27.570Z,78.46
2019-03-18T21:04:59.328Z,78.47
2019-03-18T21:07:30.981Z,78.30
2019-03-18T21:10:02.578Z,78.44
2019-03-18T21:12:34.515Z,78.84
2019-03-18T21:15:07.087Z,79.00
2019-03-18T21:17:38.690Z,79.26
2019-03-18T21:20:14.060Z,79.16
2019-03-18T21:22:45.641Z,79.44
2019-03-18T21:25:17.674Z,78.81
2019-03-18T21:27:49.588Z,78.40
2019-03-18T21:30:21.822Z,79.23
2019-03-18T21:32:54.693Z,79.01
2019-03-18T21:35:26.567Z,79.03
2019-03-18T21:37:58.487Z,78.91
2019-03-18T21:40:30.134Z,78.83
2019-03-18T21:43:01.756Z,78.42
2019-03-18T21:45:33.800Z,78.17
2019-03-18T21:48:05.666Z,78.21
2019-03-18T21:50:39.169Z,78.70
2019-03-18T21:53:11.046Z,78.46
2019-03-18T21:55:42.999Z,78.69
2019-03-18T21:58:14.861Z,79.00
2019-03-18T22:00:46.727Z,79.26
2019-03-18T22:03:18.627Z,79.29
2019-03-18T22:05:51.288Z,79.13
2019-03-18T22:08:24.277Z,79.08
2019-03-18T22:10:56.103Z,78.62
2019-03-18T22:13:27.978Z,78.24
2019-03-18T22:15:59.849Z,78.08
2019-03-18T22:18:31.754Z,78.11
2019-03-18T22:21:03.596Z,78.51
2019-03-18T22:23:35.569Z,78.63
2019-03-18T22:26:07.465Z,78.49
2019-03-18T22:28:39.380Z,79.40
2019-03-18T22:31:11.240Z,79.84
2019-03-18T22:33:53.239Z,79.94
2019-03-18T22:36:25.095Z,79.53
2019-03-18T22:38:56.971Z,78.55
2019-03-18T22:41:30.261Z,78.79
2019-03-18T22:44:02.262Z,78.62
2019-03-18T22:46:34.135Z,78.95
2019-03-18T22:49:05.971Z,79.15
2019-03-18T22:51:37.796Z,79.07
2019-03-18T22:54:09.658Z,78.88
2019-03-18T22:56:41.493Z,79.05
2019-03-18T22:59:13.340Z,79.28
2019-03-18T23:01:45.171Z,79.17
2019-03-18T23:04:17.039Z,79.17
2019-03-18T23:06:48.854Z,79.39
2019-03-18T23:09:20.708Z,78.98
2019-03-18T23:11:52.515Z,78.84
2019-03-18T23:14:25.414Z,79.14
2019-03-18T23:16:59.842Z,79.04
2019-03-18T23:19:34.877Z,78.89
2019-03-18T23:22:07.277Z,78.90
2019-03-18T23:24:39.210Z,79.12
2019-03-18T23:27:11.019Z,79.13
2019-03-18T23:29:42.873Z,79.13
2019-03-18T23:32:14.796Z,78.83
2019-03-18T23:34:46.663Z,78.85
2019-03-18T23:37:18.577Z,79.12
2019-03-18T23:39:50.429Z,78.92
2019-03-18T23:42:22.251Z,78.87
2019-03-18T23:44:54.101Z,78.99
2019-03-18T23:47:27.410Z,79.43
2019-03-18T23:50:01.082Z,79.37
2019-03-18T23:52:32.962Z,79.68
2019-03-18T23:55:05.945Z,79.56
2019-03-18T23:57:37.819Z,79.79
